Time;durP1;ratioP1;P1;durP2;ratioP2;P2;SDS_P1;SDS_P2;PMS_P1;PMS_P2;Temp;Humidity;BMP_temperature;BMP_pressure;BME280_temperature;BME280_humidity;BME280_pressure;Samples;Min_cycle;Max_cycle;Signal;HPM_P1;HPM_P2
2022/03/20 00:00:15;;;;;;;37.13;20.93;;;3.80;99.90;;;;;;5003449;28;20520;-69
2022/03/20 00:02:42;;;;;;;34.90;19.80;;;3.80;99.90;;;;;;5004637;28;20556;-69
2022/03/20 00:05:11;;;;;;;36.07;20.20;;;3.90;99.90;;;;;;5008214;28;20953;-69
2022/03/20 00:07:38;;;;;;;38.37;20.20;;;3.80;99.90;;;;;;5003993;28;20474;-69
2022/03/20 00:10:06;;;;;;;32.13;18.43;;;3.90;99.90;;;;;;5008709;28;20517;-69
2022/03/20 00:12:34;;;;;;;38.47;20.93;;;4.00;99.90;;;;;;5002034;28;20450;-69
2022/03/20 00:15:00;;;;;;;36.13;19.93;;;4.00;99.90;;;;;;5002914;28;20455;-69
2022/03/20 00:17:27;;;;;;;36.50;20.60;;;4.00;99.90;;;;;;5008495;28;20528;-70
2022/03/20 00:19:54;;;;;;;35.93;19.80;;;4.00;99.90;;;;;;5009451;28;21028;-69
2022/03/20 00:22:22;;;;;;;37.73;20.13;;;4.10;99.90;;;;;;5007890;28;20454;-69
2022/03/20 00:24:49;;;;;;;33.50;18.57;;;4.30;99.90;;;;;;5008532;28;20458;-69
2022/03/20 00:27:16;;;;;;;38.10;21.07;;;4.10;99.90;;;;;;5007799;28;20470;-69
2022/03/20 00:29:43;;;;;;;43.00;21.67;;;4.10;99.90;;;;;;5003756;28;20483;-69
2022/03/20 00:32:14;;;;;;;33.13;20.20;;;4.20;99.90;;;;;;5008464;28;20454;-69
2022/03/20 00:34:41;;;;;;;33.23;18.93;;;4.10;99.90;;;;;;5003540;28;20545;-69
2022/03/20 00:37:09;;;;;;;38.73;20.27;;;4.10;99.90;;;;;;5011115;28;20530;-69
2022/03/20 00:39:37;;;;;;;36.90;19.80;;;4.10;99.90;;;;;;5013004;28;20528;-69
2022/03/20 00:42:05;;;;;;;36.37;19.40;;;4.10;99.90;;;;;;5013146;28;20466;-69
2022/03/20 00:44:31;;;;;;;37.07;19.57;;;4.10;99.90;;;;;;5004889;28;20462;-71
2022/03/20 00:46:58;;;;;;;46.20;20.80;;;4.10;99.90;;;;;;5013025;28;20474;-72
2022/03/20 00:49:25;;;;;;;33.50;20.40;;;4.10;99.90;;;;;;5006768;28;20520;-72
2022/03/20 00:51:51;;;;;;;37.10;21.73;;;4.00;99.90;;;;;;5013276;28;20919;-71
2022/03/20 00:54:18;;;;;;;33.73;19.93;;;4.10;99.90;;;;;;5011062;28;20954;-71
2022/03/20 00:56:46;;;;;;;40.47;20.70;;;4.00;99.90;;;;;;5012124;28;20473;-72
2022/03/20 00:59:13;;;;;;;33.93;19.33;;;3.90;99.90;;;;;;5005826;28;20482;-73
2022/03/20 01:01:41;;;;;;;37.37;21.03;;;4.00;99.90;;;;;;5006328;28;21030;-71
2022/03/20 01:04:08;;;;;;;37.37;21.53;;;3.90;99.90;;;;;;5011964;28;20482;-71
2022/03/20 01:06:35;;;;;;;46.90;21.70;;;3.90;99.90;;;;;;5006317;28;20571;-71
2022/03/20 01:09:01;;;;;;;36.67;20.77;;;3.80;99.90;;;;;;5012731;28;20496;-72
2022/03/20 01:11:28;;;;;;;36.00;20.67;;;3.80;99.90;;;;;;5006412;28;20505;-72
2022/03/20 01:13:56;;;;;;;33.73;19.17;;;3.70;99.90;;;;;;5012485;28;20542;-71
2022/03/20 01:16:23;;;;;;;38.73;20.90;;;3.80;99.90;;;;;;5003423;28;21021;-71
2022/03/20 01:18:49;;;;;;;42.97;21.47;;;3.70;99.90;;;;;;5012760;28;20485;-71
2022/03/20 01:21:16;;;;;;;34.73;21.30;;;3.60;99.90;;;;;;5011706;28;20476;-72
2022/03/20 01:23:43;;;;;;;34.93;19.80;;;3.60;99.90;;;;;;5012971;28;20485;-71
2022/03/20 01:26:11;;;;;;;37.00;21.07;;;3.60;99.90;;;;;;5011859;28;20523;-71
2022/03/20 01:28:38;;;;;;;37.17;21.30;;;3.60;99.90;;;;;;5009402;28;20982;-71
2022/03/20 01:31:08;;;;;;;38.30;20.13;;;3.50;99.90;;;;;;5007746;28;20966;-72
2022/03/20 01:33:35;;;;;;;38.40;20.40;;;3.40;99.90;;;;;;5011533;28;20463;-72
2022/03/20 01:36:02;;;;;;;34.07;20.60;;;3.40;99.90;;;;;;5012128;28;20505;-73
2022/03/20 01:38:28;;;;;;;59.77;20.47;;;3.40;99.90;;;;;;5011586;28;20485;-71
2022/03/20 01:40:55;;;;;;;34.20;19.93;;;3.40;99.90;;;;;;5012159;28;20962;-71
2022/03/20 01:43:22;;;;;;;36.30;20.27;;;3.40;99.90;;;;;;5004078;28;20500;-72
2022/03/20 01:45:48;;;;;;;38.13;21.67;;;3.30;99.90;;;;;;5007044;28;20458;-71
2022/03/20 01:48:16;;;;;;;36.93;21.43;;;3.40;99.90;;;;;;5010944;28;20478;-71
2022/03/20 01:50:43;;;;;;;43.87;21.00;;;3.30;99.90;;;;;;5012395;28;20458;-71
2022/03/20 01:53:10;;;;;;;37.53;20.03;;;3.20;99.90;;;;;;5011525;28;20508;-72
2022/03/20 01:55:37;;;;;;;42.63;21.07;;;3.20;99.90;;;;;;5011817;28;20516;-71
2022/03/20 01:58:04;;;;;;;36.83;21.50;;;3.20;99.90;;;;;;5003595;28;20902;-72
2022/03/20 02:00:32;;;;;;;45.43;20.80;;;3.20;99.90;;;;;;5009470;28;20497;-72
2022/03/20 02:03:00;;;;;;;41.43;21.37;;;3.20;99.90;;;;;;5006583;28;20450;-71
2022/03/20 02:05:28;;;;;;;38.20;20.23;;;3.30;99.90;;;;;;5011284;28;20450;-71
2022/03/20 02:07:55;;;;;;;36.23;20.67;;;3.20;99.90;;;;;;5011358;28;21002;-71
2022/03/20 02:10:21;;;;;;;42.60;20.63;;;3.20;99.90;;;;;;5011684;28;20462;-72
2022/03/20 02:12:48;;;;;;;40.50;20.77;;;3.20;99.90;;;;;;5011294;28;20450;-71
2022/03/20 02:15:15;;;;;;;38.00;21.63;;;3.20;99.90;;;;;;5010822;28;20458;-71
2022/03/20 02:17:43;;;;;;;37.17;20.83;;;3.20;99.90;;;;;;5005031;28;20533;-72
2022/03/20 02:20:11;;;;;;;39.43;21.23;;;3.20;99.90;;;;;;5009537;28;20486;-72
2022/03/20 02:22:41;;;;;;;35.17;20.40;;;3.20;99.90;;;;;;5011416;28;20458;-72
2022/03/20 02:25:11;;;;;;;38.67;19.77;;;3.20;99.90;;;;;;5010575;28;21026;-71
2022/03/20 02:27:39;;;;;;;41.13;20.53;;;3.20;99.90;;;;;;5010395;28;20604;-71
2022/03/20 02:30:13;;;;;;;38.00;21.40;;;3.20;99.90;;;;;;5009706;28;20466;-72
2022/03/20 02:32:41;;;;;;;43.37;21.30;;;3.20;99.90;;;;;;5010920;28;20462;-71
2022/03/20 02:35:14;;;;;;;39.37;21.37;;;3.10;99.90;;;;;;5010696;28;20554;-70
2022/03/20 02:37:44;;;;;;;37.57;21.50;;;3.10;99.90;;;;;;5010178;28;21069;-72
2022/03/20 02:40:12;;;;;;;39.70;19.93;;;3.10;99.90;;;;;;5004729;28;20487;-72
2022/03/20 02:42:40;;;;;;;44.53;23.20;;;3.10;99.90;;;;;;5011071;28;20496;-72
2022/03/20 02:45:08;;;;;;;43.70;22.33;;;3.10;99.90;;;;;;5004285;28;20451;-71
2022/03/20 02:47:38;;;;;;;36.63;21.10;;;3.10;99.90;;;;;;5003024;28;20978;-71
2022/03/20 02:50:07;;;;;;;41.83;22.17;;;3.10;99.90;;;;;;5011245;28;20458;-71
2022/03/20 02:52:46;;;;;;;40.20;22.00;;;3.10;99.90;;;;;;5009428;28;20872;-71
2022/03/20 02:55:14;;;;;;;41.30;21.73;;;3.10;99.90;;;;;;5010250;28;20448;-71
2022/03/20 02:57:40;;;;;;;39.97;21.47;;;3.10;99.90;;;;;;5010175;28;20482;-71
2022/03/20 03:00:10;;;;;;;38.43;21.93;;;3.20;99.90;;;;;;5009596;28;20978;-71
2022/03/20 03:02:42;;;;;;;44.10;22.27;;;3.10;99.90;;;;;;5009934;28;20459;-71
2022/03/20 03:05:09;;;;;;;36.23;21.53;;;3.10;99.90;;;;;;5010619;28;20513;-71
2022/03/20 03:10:55;;;;;;;43.10;22.93;;;3.10;99.90;;;;;;5008382;28;20995;-71
2022/03/20 03:13:09;;;;;;;42.40;21.77;;;3.10;99.90;;;;;;5009842;28;20478;-72
2022/03/20 03:15:36;;;;;;;38.90;21.37;;;3.10;99.90;;;;;;5009984;28;21024;-72
2022/03/20 03:18:03;;;;;;;38.53;21.47;;;3.10;99.90;;;;;;5010522;28;20478;-71
2022/03/20 03:20:30;;;;;;;38.30;22.10;;;3.10;99.90;;;;;;5009899;28;20492;-71
2022/03/20 03:22:57;;;;;;;47.17;22.17;;;3.10;99.90;;;;;;5010545;28;20458;-71
2022/03/20 03:25:25;;;;;;;41.60;21.60;;;3.10;99.90;;;;;;5009237;28;20466;-71
2022/03/20 03:27:51;;;;;;;39.87;21.40;;;3.00;99.90;;;;;;5010592;28;21160;-71
2022/03/20 03:30:18;;;;;;;44.77;22.33;;;3.00;99.90;;;;;;5007983;28;20459;-72
2022/03/20 03:32:46;;;;;;;41.83;22.23;;;3.00;99.90;;;;;;5010111;28;20446;-71
2022/03/20 03:37:59;;;;;;;36.40;21.03;;;3.10;99.90;;;;;;5005133;28;20465;-72
2022/03/20 03:40:28;;;;;;;39.40;21.23;;;3.00;99.90;;;;;;5009694;28;20569;-71
2022/03/20 03:42:54;;;;;;;36.93;21.07;;;3.00;99.90;;;;;;5010234;28;20485;-71
2022/03/20 03:45:22;;;;;;;40.13;21.67;;;3.00;99.90;;;;;;5009439;28;20516;-72
2022/03/20 03:47:49;;;;;;;40.43;21.43;;;2.90;99.90;;;;;;5009880;28;20486;-72
2022/03/20 03:50:16;;;;;;;38.90;22.27;;;2.90;99.90;;;;;;5009184;28;20451;-72
2022/03/20 03:52:43;;;;;;;41.57;21.77;;;3.30;99.90;;;;;;5002445;28;20458;-71
2022/03/20 03:55:10;;;;;;;42.53;22.80;;;2.80;99.90;;;;;;5009723;28;20442;-72
2022/03/20 03:57:42;;;;;;;40.93;20.97;;;2.80;99.90;;;;;;5008010;28;21057;-71
2022/03/20 04:00:11;;;;;;;42.07;21.70;;;2.80;99.90;;;;;;5009478;28;20517;-71
2022/03/20 04:02:38;;;;;;;40.70;22.90;;;2.80;99.90;;;;;;5010090;28;20981;-72
2022/03/20 04:05:05;;;;;;;44.43;21.87;;;2.70;99.90;;;;;;5009517;28;20485;-72
2022/03/20 04:07:32;;;;;;;43.27;21.63;;;2.70;99.90;;;;;;5008410;28;20537;-72
2022/03/20 04:09:59;;;;;;;38.87;21.80;;;2.70;99.90;;;;;;5009333;28;20454;-72
2022/03/20 04:12:25;;;;;;;41.20;22.13;;;2.70;99.90;;;;;;5011656;28;20462;-71
2022/03/20 04:14:53;;;;;;;41.97;22.90;;;2.80;99.90;;;;;;5013653;28;20454;-71
2022/03/20 04:17:20;;;;;;;43.60;21.57;;;2.70;99.90;;;;;;5013329;28;20847;-71
2022/03/20 04:19:47;;;;;;;43.37;23.57;;;2.70;99.90;;;;;;5013328;28;20494;-70
2022/03/20 04:22:14;;;;;;;44.10;21.70;;;2.70;99.90;;;;;;5013123;28;20454;-72
2022/03/20 04:24:41;;;;;;;40.63;21.63;;;2.70;99.90;;;;;;5011292;28;20508;-71
2022/03/20 04:27:11;;;;;;;41.90;22.07;;;2.70;99.90;;;;;;5013412;28;20517;-72
2022/03/20 04:29:38;;;;;;;43.07;22.33;;;2.70;99.90;;;;;;5007009;28;20485;-72
2022/03/20 04:32:08;;;;;;;40.60;21.70;;;2.70;99.90;;;;;;5013695;28;20446;-71
2022/03/20 04:34:35;;;;;;;44.63;22.30;;;2.70;99.90;;;;;;5005684;28;20516;-72
2022/03/20 04:37:04;;;;;;;42.97;21.63;;;2.80;99.90;;;;;;5012896;28;20470;-72
2022/03/20 04:39:31;;;;;;;46.93;24.10;;;2.70;99.90;;;;;;5013320;28;20490;-71
2022/03/20 04:41:58;;;;;;;40.17;22.07;;;2.70;99.90;;;;;;5007262;28;20450;-71
2022/03/20 04:44:24;;;;;;;44.87;21.67;;;2.60;99.90;;;;;;5013128;28;20516;-71
2022/03/20 04:46:51;;;;;;;43.07;21.80;;;2.60;99.90;;;;;;5013218;28;20470;-71
2022/03/20 05:00:18;;;;;;;40.60;22.70;;;2.60;99.90;;;;;;5012526;28;20497;-71
2022/03/20 05:02:45;;;;;;;45.90;24.73;;;2.50;99.90;;;;;;5005469;28;20454;-71
2022/03/20 05:05:13;;;;;;;40.57;22.13;;;2.50;99.90;;;;;;5012617;28;20450;-73
2022/03/20 05:07:40;;;;;;;46.73;23.53;;;2.50;99.90;;;;;;5012388;28;20524;-72
2022/03/20 05:15:37;;;;;;;47.03;23.23;;;2.50;99.90;;;;;;5009589;28;20868;-71
2022/03/20 05:18:04;;;;;;;49.40;23.60;;;2.50;99.90;;;;;;5006297;28;20474;-71
2022/03/20 05:20:32;;;;;;;38.50;21.63;;;2.40;99.90;;;;;;5011939;28;20533;-72
2022/03/20 05:22:59;;;;;;;41.40;22.80;;;2.40;99.90;;;;;;5011881;28;20458;-72
2022/03/20 05:25:28;;;;;;;42.03;23.60;;;1.90;99.90;;;;;;5010611;28;20947;-71
2022/03/20 05:27:54;;;;;;;41.43;21.80;;;2.40;99.90;;;;;;5004749;28;20472;-71
2022/03/20 05:30:21;;;;;;;48.40;24.17;;;2.40;99.90;;;;;;5009846;28;20497;-71
2022/03/20 05:32:48;;;;;;;48.57;24.97;;;2.40;99.90;;;;;;5004888;28;20455;-72
2022/03/20 05:35:16;;;;;;;43.77;22.50;;;2.40;99.90;;;;;;5007686;28;20454;-71
2022/03/20 05:37:45;;;;;;;45.40;23.10;;;2.50;99.90;;;;;;5010243;28;21038;-71
2022/03/20 05:40:13;;;;;;;54.00;24.90;;;2.50;99.90;;;;;;5012525;28;20474;-71
2022/03/20 05:42:40;;;;;;;41.73;22.33;;;2.60;99.90;;;;;;5005244;28;20924;-71
2022/03/20 05:45:08;;;;;;;47.00;23.50;;;2.60;99.90;;;;;;5011382;28;20457;-72
2022/03/20 05:47:35;;;;;;;43.00;23.30;;;2.70;99.90;;;;;;5006847;28;20866;-72
2022/03/20 05:50:01;;;;;;;40.87;23.03;;;2.70;99.90;;;;;;5012013;28;20524;-72
2022/03/20 05:52:30;;;;;;;40.50;22.80;;;2.80;99.90;;;;;;5011826;28;20508;-71
2022/03/20 05:54:58;;;;;;;42.43;22.70;;;2.90;99.90;;;;;;5006029;28;20461;-72
2022/03/20 06:00:16;;;;;;;49.43;23.80;;;3.10;99.90;;;;;;5006799;28;20489;-72
2022/03/20 06:02:43;;;;;;;43.37;24.60;;;3.20;99.90;;;;;;5011095;28;20541;-72
2022/03/20 06:05:10;;;;;;;44.00;23.33;;;3.30;99.90;;;;;;5011830;28;20486;-72
2022/03/20 06:07:41;;;;;;;48.27;24.37;;;3.40;99.90;;;;;;5010635;28;20470;-71
2022/03/20 06:10:11;;;;;;;42.30;23.00;;;3.40;99.90;;;;;;5012306;28;20446;-71
2022/03/20 06:12:37;;;;;;;44.43;23.97;;;3.50;99.90;;;;;;5010856;28;20453;-71
2022/03/20 06:15:08;;;;;;;47.37;23.90;;;3.70;99.90;;;;;;5011467;28;20480;-72
2022/03/20 06:17:37;;;;;;;46.97;24.53;;;3.80;99.90;;;;;;5001314;28;20510;-72
2022/03/20 06:20:06;;;;;;;40.73;22.83;;;3.80;99.90;;;;;;5011115;28;20479;-71
2022/03/20 06:22:33;;;;;;;42.90;23.93;;;3.80;99.90;;;;;;5011501;28;20450;-71
2022/03/20 06:25:00;;;;;;;46.17;24.07;;;3.80;99.90;;;;;;5003451;28;20942;-71
2022/03/20 06:27:28;;;;;;;46.73;24.00;;;3.70;99.90;;;;;;5010795;28;20528;-71
2022/03/20 06:29:55;;;;;;;42.10;23.90;;;3.70;99.90;;;;;;5011159;28;20450;-71
2022/03/20 06:32:22;;;;;;;47.60;25.50;;;3.70;99.90;;;;;;5010934;28;20540;-72
2022/03/20 06:34:50;;;;;;;55.53;26.10;;;3.70;99.90;;;;;;5010476;28;20508;-71
2022/03/20 06:37:16;;;;;;;47.10;24.50;;;3.70;99.90;;;;;;5011199;28;20969;-71
2022/03/20 06:39:43;;;;;;;48.60;26.57;;;3.80;99.90;;;;;;5009116;28;20490;-71
2022/03/20 06:42:10;;;;;;;51.43;26.77;;;3.80;99.90;;;;;;5011127;28;20529;-71
2022/03/20 06:44:38;;;;;;;46.17;25.23;;;3.90;99.90;;;;;;5010248;28;20458;-69
2022/03/20 06:47:05;;;;;;;49.03;26.00;;;4.00;99.90;;;;;;5005783;28;20482;-69
2022/03/20 06:49:31;;;;;;;48.83;26.77;;;4.10;99.90;;;;;;5009893;28;20443;-69
2022/03/20 06:51:58;;;;;;;56.03;27.77;;;4.20;99.90;;;;;;5010785;28;20490;-69
2022/03/20 06:54:25;;;;;;;43.60;25.10;;;4.40;99.90;;;;;;5010308;28;20497;-69
2022/03/20 06:56:54;;;;;;;53.83;28.87;;;4.50;99.90;;;;;;5009494;28;21005;-69
2022/03/20 06:59:21;;;;;;;51.90;27.40;;;4.50;99.90;;;;;;5010586;28;20454;-69
2022/03/20 07:01:49;;;;;;;50.57;27.33;;;4.70;99.90;;;;;;5007131;28;20521;-69
2022/03/20 07:04:16;;;;;;;54.70;27.73;;;4.80;99.90;;;;;;5006033;28;20871;-69
2022/03/20 07:06:43;;;;;;;52.20;28.37;;;5.00;99.90;;;;;;5008215;28;20825;-69
2022/03/20 07:09:10;;;;;;;53.23;28.23;;;5.20;99.90;;;;;;5010500;28;20489;-69
2022/03/20 07:11:36;;;;;;;54.67;29.20;;;5.40;99.90;;;;;;5010226;28;20947;-69
2022/03/20 07:14:03;;;;;;;54.03;27.97;;;5.70;99.90;;;;;;5010305;28;20457;-69
2022/03/20 07:16:33;;;;;;;56.10;30.67;;;5.80;99.90;;;;;;5009638;28;20485;-69
2022/03/20 07:19:01;;;;;;;52.00;29.03;;;5.90;99.90;;;;;;5009955;28;20897;-69
2022/03/20 07:21:32;;;;;;;50.70;28.47;;;6.00;99.90;;;;;;5009724;28;21282;-70
2022/03/20 07:23:59;;;;;;;54.23;29.00;;;6.00;99.90;;;;;;5009822;28;20553;-69
2022/03/20 07:31:54;;;;;;;55.83;29.27;;;6.50;99.90;;;;;;5009493;28;20437;-69
2022/03/20 07:34:22;;;;;;;57.43;30.83;;;6.80;99.90;;;;;;5009585;28;20934;-69
2022/03/20 07:36:48;;;;;;;54.93;29.30;;;7.00;99.90;;;;;;5009896;28;20486;-69
2022/03/20 07:39:15;;;;;;;57.10;30.57;;;7.10;99.90;;;;;;5003504;28;20527;-69
2022/03/20 07:41:41;;;;;;;56.47;30.00;;;7.10;99.90;;;;;;5009492;28;21072;-69
2022/03/20 07:44:08;;;;;;;57.07;30.67;;;7.00;99.90;;;;;;5009979;28;20454;-69
2022/03/20 07:46:36;;;;;;;55.10;28.70;;;7.00;99.90;;;;;;5009168;28;20474;-69
2022/03/20 07:49:02;;;;;;;58.53;31.00;;;7.00;99.90;;;;;;5003540;28;20817;-69
2022/03/20 07:51:31;;;;;;;60.77;30.83;;;7.10;99.90;;;;;;4996796;28;20489;-69
2022/03/20 07:53:58;;;;;;;52.23;28.10;;;7.20;99.90;;;;;;5007395;28;20463;-70
2022/03/20 07:56:25;;;;;;;54.07;27.70;;;7.30;99.90;;;;;;5007000;28;20454;-69
2022/03/20 07:58:54;;;;;;;48.83;27.00;;;7.30;99.90;;;;;;5010098;28;20483;-69
2022/03/20 08:01:21;;;;;;;55.53;29.40;;;7.30;99.90;;;;;;5009450;28;20536;-69
2022/03/20 08:03:47;;;;;;;51.50;28.43;;;7.30;99.90;;;;;;5009465;28;20458;-69
2022/03/20 08:06:15;;;;;;;59.27;28.93;;;7.60;99.90;;;;;;5008807;28;20461;-68
2022/03/20 08:08:43;;;;;;;57.73;30.00;;;7.80;99.90;;;;;;5009577;28;20515;-69
2022/03/20 08:11:10;;;;;;;53.73;28.30;;;8.20;99.90;;;;;;5009043;28;20452;-69
2022/03/20 08:13:36;;;;;;;58.83;29.40;;;8.40;99.90;;;;;;5009564;28;20557;-69
2022/03/20 08:16:04;;;;;;;53.55;29.58;;;8.30;99.90;;;;;;5008471;28;20438;-70
2022/03/20 08:18:31;;;;;;;56.10;30.63;;;8.30;99.90;;;;;;5008360;28;20462;-69
2022/03/20 08:20:57;;;;;;;52.60;28.03;;;8.40;99.90;;;;;;5006043;28;20691;-69
2022/03/20 08:23:24;;;;;;;54.83;30.97;;;8.30;99.90;;;;;;5007584;28;20462;-69
2022/03/20 08:25:52;;;;;;;57.47;28.93;;;8.40;99.90;;;;;;5008912;28;20458;-71
2022/03/20 08:28:18;;;;;;;49.60;27.10;;;8.50;99.90;;;;;;5009602;28;20470;-70
2022/03/20 08:30:45;;;;;;;52.57;29.27;;;8.50;99.90;;;;;;5009433;28;20458;-70
2022/03/20 08:33:12;;;;;;;55.63;28.60;;;8.70;99.90;;;;;;5009263;28;20863;-70
2022/03/20 08:35:39;;;;;;;49.57;27.53;;;8.90;99.90;;;;;;5009698;28;20516;-70
2022/03/20 08:38:06;;;;;;;48.40;27.43;;;9.10;99.90;;;;;;5008362;28;20470;-70
2022/03/20 08:40:33;;;;;;;52.10;28.23;;;9.40;99.90;;;;;;5003449;28;20493;-69
2022/03/20 08:43:01;;;;;;;58.97;27.67;;;9.60;99.90;;;;;;5006827;28;21167;-67
2022/03/20 08:45:29;;;;;;;54.83;30.50;;;9.70;99.90;;;;;;5005882;28;20458;-67
2022/03/20 08:47:56;;;;;;;46.50;27.00;;;9.90;99.90;;;;;;5007494;28;20470;-67
2022/03/20 08:50:22;;;;;;;51.67;28.77;;;9.80;99.90;;;;;;5005694;28;20446;-67
2022/03/20 08:52:49;;;;;;;53.30;28.77;;;9.70;99.90;;;;;;5008062;28;20520;-67
2022/03/20 08:55:17;;;;;;;53.77;30.00;;;9.70;99.90;;;;;;4999011;28;20529;-68
2022/03/20 08:57:47;;;;;;;58.23;29.90;;;9.70;99.90;;;;;;5009052;28;20531;-68
2022/03/20 09:00:18;;;;;;;51.33;28.70;;;9.90;99.90;;;;;;5006232;28;20466;-67
2022/03/20 09:02:46;;;;;;;53.47;28.27;;;10.10;99.90;;;;;;5005800;28;20958;-68
2022/03/20 09:05:13;;;;;;;56.23;28.77;;;10.20;99.90;;;;;;5012327;28;20494;-68
2022/03/20 09:07:40;;;;;;;50.17;28.40;;;10.30;99.90;;;;;;5012563;28;20473;-68
2022/03/20 09:10:09;;;;;;;48.33;27.83;;;10.40;99.90;;;;;;5008762;28;20451;-68
2022/03/20 09:12:37;;;;;;;50.03;28.07;;;10.50;99.90;;;;;;5012106;28;20454;-67
2022/03/20 09:15:05;;;;;;;54.17;29.73;;;10.70;99.90;;;;;;5006614;28;20490;-70
2022/03/20 09:20:18;;;;;;;53.17;30.50;;;11.10;99.90;;;;;;5006730;28;20985;-73
2022/03/20 09:22:44;;;;;;;50.93;28.80;;;11.00;99.90;;;;;;5006031;28;20455;-70
2022/03/20 09:25:11;;;;;;;45.07;27.63;;;11.00;99.90;;;;;;5007986;28;20880;-70
2022/03/20 09:27:38;;;;;;;48.87;26.30;;;11.00;99.90;;;;;;5005837;28;20466;-69
2022/03/20 09:30:05;;;;;;;48.83;26.77;;;11.20;99.90;;;;;;5011908;28;20496;-70
2022/03/20 09:32:34;;;;;;;49.30;27.87;;;11.00;99.90;;;;;;5005428;28;20851;-70
2022/03/20 09:35:00;;;;;;;52.03;29.07;;;10.80;99.90;;;;;;5003526;28;20454;-70
2022/03/20 09:37:27;;;;;;;59.87;28.80;;;10.70;99.90;;;;;;5005611;28;20528;-69
2022/03/20 09:39:53;;;;;;;53.53;26.80;;;10.80;99.90;;;;;;5012105;28;20473;-70
2022/03/20 09:42:21;;;;;;;54.40;30.53;;;11.00;99.90;;;;;;5011414;28;20482;-70
2022/03/20 09:44:53;;;;;;;49.50;27.80;;;11.10;99.90;;;;;;5004055;28;21045;-70
2022/03/20 09:47:21;;;;;;;47.33;28.00;;;10.90;99.90;;;;;;5011323;28;20555;-70
2022/03/20 09:49:50;;;;;;;49.10;29.00;;;10.90;99.90;;;;;;5011515;28;20966;-70
2022/03/20 09:52:17;;;;;;;47.20;27.37;;;11.10;99.90;;;;;;5012142;28;21038;-71
2022/03/20 09:54:44;;;;;;;51.27;28.50;;;11.50;99.90;;;;;;5011210;28;20935;-70
2022/03/20 09:57:11;;;;;;;54.53;29.77;;;11.70;99.90;;;;;;4999033;28;20557;-70
2022/03/20 09:59:40;;;;;;;49.63;29.00;;;11.70;99.90;;;;;;5011162;28;20959;-70
2022/03/20 10:02:08;;;;;;;52.73;29.53;;;11.70;99.90;;;;;;5011246;28;20482;-70
2022/03/20 10:04:55;;;;;;;47.90;29.77;;;11.60;99.90;;;;;;4998700;28;20503;-70
2022/03/20 10:07:22;;;;;;;48.80;28.87;;;11.60;99.90;;;;;;5011690;28;20512;-69
2022/03/20 10:10:08;;;;;;;58.40;31.00;;;11.50;99.90;;;;;;5003656;28;20516;-70
2022/03/20 10:12:37;;;;;;;48.83;28.70;;;11.40;99.90;;;;;;5009799;28;20446;-69
2022/03/20 10:15:06;;;;;;;53.53;28.23;;;11.60;99.90;;;;;;5007207;28;20508;-70
2022/03/20 10:17:33;;;;;;;54.80;27.57;;;11.60;99.90;;;;;;5010213;28;20493;-69
2022/03/20 10:20:14;;;;;;;51.10;29.73;;;11.60;99.90;;;;;;5011678;28;20450;-69
2022/03/20 10:22:41;;;;;;;52.67;28.97;;;11.60;99.90;;;;;;5012086;28;20482;-70
2022/03/20 10:25:11;;;;;;;50.93;28.70;;;11.60;99.90;;;;;;5002540;28;20451;-71
2022/03/20 10:27:37;;;;;;;44.20;25.60;;;11.60;99.90;;;;;;5007026;28;20474;-71
2022/03/20 10:30:09;;;;;;;49.00;27.57;;;11.80;99.90;;;;;;5010203;28;20461;-71
2022/03/20 10:32:36;;;;;;;51.23;28.47;;;12.10;99.90;;;;;;5011176;28;20450;-70
2022/03/20 10:35:10;;;;;;;50.73;29.07;;;12.20;99.90;;;;;;5010428;28;20932;-71
2022/03/20 10:37:50;;;;;;;51.00;29.27;;;12.10;99.90;;;;;;5010943;28;20535;-69
2022/03/20 10:40:18;;;;;;;50.40;27.47;;;12.30;99.90;;;;;;5010950;28;20977;-71
2022/03/20 10:43:06;;;;;;;47.80;28.40;;;12.30;99.90;;;;;;5011161;28;20482;-71
2022/03/20 10:45:48;;;;;;;54.07;30.67;;;12.20;99.90;;;;;;5010405;28;20930;-70
2022/03/20 10:48:17;;;;;;;53.43;28.60;;;12.40;99.90;;;;;;4991547;28;21151;-71
2022/03/20 10:50:47;;;;;;;51.10;29.17;;;12.60;99.90;;;;;;4991664;28;20960;-68
2022/03/20 10:53:15;;;;;;;50.47;29.00;;;12.60;99.90;;;;;;4994809;28;20450;-69
2022/03/20 10:55:41;;;;;;;47.43;26.40;;;12.40;99.90;;;;;;5010629;28;20489;-69
2022/03/20 10:58:22;;;;;;;47.70;26.60;;;12.30;99.90;;;;;;5008094;28;20474;-68
2022/03/20 11:00:49;;;;;;;47.27;27.37;;;12.40;99.90;;;;;;5010143;28;20823;-69
2022/03/20 11:03:21;;;;;;;49.57;28.67;;;12.40;99.90;;;;;;5010645;28;20528;-69
2022/03/20 11:05:48;;;;;;;50.00;28.23;;;12.80;99.90;;;;;;5010619;28;20450;-69
2022/03/20 11:08:16;;;;;;;47.50;28.07;;;13.20;99.90;;;;;;5010435;28;20535;-69
2022/03/20 11:10:44;;;;;;;51.77;29.90;;;13.20;99.90;;;;;;5010634;28;20505;-69
2022/03/20 11:13:13;;;;;;;47.87;28.10;;;13.00;99.90;;;;;;5010051;28;20454;-68
2022/03/20 11:15:40;;;;;;;45.97;26.90;;;13.00;99.90;;;;;;5010538;28;20453;-69
2022/03/20 11:18:07;;;;;;;47.80;27.00;;;13.00;99.90;;;;;;5010172;28;20473;-69
2022/03/20 11:20:34;;;;;;;47.70;27.83;;;13.10;99.90;;;;;;5009521;28;20466;-68
2022/03/20 11:23:04;;;;;;;43.97;26.77;;;13.40;99.90;;;;;;5010524;28;20482;-69
2022/03/20 11:25:37;;;;;;;50.23;28.50;;;13.50;99.90;;;;;;5002221;28;20490;-69
2022/03/20 11:28:07;;;;;;;48.47;28.73;;;13.40;99.90;;;;;;5010288;28;20459;-68
2022/03/20 11:30:35;;;;;;;50.27;29.50;;;13.40;99.90;;;;;;5010092;28;20811;-68
2022/03/20 11:33:03;;;;;;;44.00;27.73;;;13.50;99.90;;;;;;5010696;28;20587;-67
2022/03/20 11:35:32;;;;;;;49.47;27.60;;;13.50;99.90;;;;;;5010721;28;20458;-68
2022/03/20 11:38:13;;;;;;;48.70;27.33;;;13.60;99.90;;;;;;5010902;28;20470;-67
2022/03/20 11:41:04;;;;;;;53.80;29.60;;;13.70;99.90;;;;;;5010539;28;20454;-68
2022/03/20 11:43:30;;;;;;;50.80;28.47;;;13.60;99.90;;;;;;4996598;28;20557;-68
2022/03/20 11:46:33;;;;;;;49.10;26.93;;;13.60;99.90;;;;;;5010853;28;20539;-67
2022/03/20 11:49:21;;;;;;;47.70;26.10;;;13.60;99.90;;;;;;4949866;29;20818;-67
2022/03/20 11:52:02;;;;;;;53.40;28.87;;;13.60;99.90;;;;;;4949497;29;20453;-68
2022/03/20 11:54:31;;;;;;;43.90;24.30;;;13.50;99.90;;;;;;4978870;28;20513;-67
2022/03/20 11:57:00;;;;;;;52.03;29.50;;;13.60;99.90;;;;;;5009085;28;20494;-67
2022/03/20 11:59:47;;;;;;;48.70;28.07;;;13.80;99.90;;;;;;4996513;28;20454;-67
2022/03/20 12:02:16;;;;;;;45.17;26.90;;;13.40;99.90;;;;;;5010585;28;20489;-67
2022/03/20 12:05:00;;;;;;;47.70;25.50;;;13.20;99.90;;;;;;5010393;28;20849;-67
2022/03/20 12:07:34;;;;;;;44.13;26.73;;;13.10;99.90;;;;;;5004511;28;20897;-67
2022/03/20 12:10:13;;;;;;;49.03;28.37;;;13.10;99.90;;;;;;5010700;28;20466;-67
2022/03/20 12:12:55;;;;;;;45.73;26.83;;;13.60;99.90;;;;;;5010286;28;20986;-67
2022/03/20 12:15:24;;;;;;;50.27;27.03;;;14.10;99.90;;;;;;4995172;28;20457;-67
2022/03/20 12:17:59;;;;;;;47.73;27.77;;;14.10;99.90;;;;;;5010282;28;20470;-70
2022/03/20 12:20:51;;;;;;;42.73;25.83;;;14.20;99.90;;;;;;5010122;28;20457;-69
2022/03/20 12:23:40;;;;;;;47.50;27.37;;;14.30;99.90;;;;;;5008467;28;20522;-71
2022/03/20 12:26:31;;;;;;;47.05;28.38;;;14.30;99.90;;;;;;5008827;28;20481;-68
2022/03/20 12:29:29;;;;;;;45.40;26.53;;;14.10;99.90;;;;;;5009073;28;20584;-67
2022/03/20 12:31:57;;;;;;;45.70;26.27;;;14.20;99.90;;;;;;5006712;28;20442;-68
2022/03/20 12:34:25;;;;;;;57.93;27.50;;;14.30;99.90;;;;;;5012912;28;20869;-67
2022/03/20 12:36:51;;;;;;;41.00;26.27;;;14.40;99.90;;;;;;5013172;28;20557;-67
2022/03/20 12:39:49;;;;;;;48.83;28.87;;;14.30;99.90;;;;;;5012976;28;20445;-67
2022/03/20 12:42:17;;;;;;;50.53;28.53;;;14.20;99.90;;;;;;5013136;28;20493;-67
2022/03/20 12:44:50;;;;;;;43.70;26.67;;;14.40;99.90;;;;;;5008946;28;20455;-68
2022/03/20 12:47:18;;;;;;;47.60;28.80;;;14.40;99.90;;;;;;5011948;28;20547;-67
2022/03/20 12:49:47;;;;;;;48.20;27.33;;;14.40;99.90;;;;;;5012799;28;20463;-66
2022/03/20 12:52:16;;;;;;;49.77;27.43;;;14.20;99.90;;;;;;5013065;28;20446;-67
2022/03/20 12:54:53;;;;;;;49.43;26.87;;;14.00;99.90;;;;;;5010976;28;20460;-67
2022/03/20 12:57:35;;;;;;;47.77;28.77;;;13.90;99.90;;;;;;5011706;28;20470;-68
2022/03/20 13:00:09;;;;;;;48.87;29.00;;;14.00;99.90;;;;;;5012739;28;20450;-68
2022/03/20 13:02:35;;;;;;;41.90;27.33;;;14.60;99.90;;;;;;5011747;28;20482;-66
2022/03/20 13:05:10;;;;;;;47.43;27.70;;;15.00;99.90;;;;;;5012000;28;20869;-67
2022/03/20 13:07:39;;;;;;;46.13;28.40;;;14.90;99.90;;;;;;5011746;28;20473;-67
2022/03/20 13:10:06;;;;;;;46.27;26.67;;;14.50;99.90;;;;;;5012348;28;20439;-67
2022/03/20 13:12:52;;;;;;;47.20;26.70;;;14.30;99.90;;;;;;5011656;28;20463;-67
2022/03/20 13:15:25;;;;;;;48.80;27.43;;;14.10;99.90;;;;;;5012298;28;20454;-67